Time;durP1;ratioP1;P1;durP2;ratioP2;P2;SDS_P1;SDS_P2;PMS_P1;PMS_P2;Temp;Humidity;BMP_temperature;BMP_pressure;BME280_temperature;BME280_humidity;BME280_pressure;Samples;Min_cycle;Max_cycle;Signal;HPM_P1;HPM_P2
2021/09/04 00:02:14;;;;;;;5.93;1.25;;;;;;;;;;5035706;28;20043;-69
2021/09/04 00:04:42;;;;;;;6.00;1.52;;;;;;;;;;5034380;28;20021;-69
2021/09/04 00:07:09;;;;;;;6.88;1.10;;;;;;;;;;5040189;28;20040;-69
2021/09/04 00:09:37;;;;;;;4.85;1.38;;;;;;;;;;5041606;28;20041;-69
2021/09/04 00:12:07;;;;;;;4.55;1.17;;;;;;;;;;5037926;28;20022;-69
2021/09/04 00:14:35;;;;;;;4.93;1.70;;;;;;;;;;5037459;28;20092;-69
2021/09/04 00:17:02;;;;;;;5.82;1.45;;;;;;;;;;5041173;28;20025;-69
2021/09/04 00:19:29;;;;;;;4.72;1.17;;;;;;;;;;5035221;28;20044;-69
2021/09/04 00:21:57;;;;;;;5.07;1.08;;;;;;;;;;5047158;28;20021;-69
2021/09/04 00:24:24;;;;;;;5.15;1.38;;;;;;;;;;5045141;28;20228;-69
2021/09/04 00:26:51;;;;;;;4.55;1.13;;;;;;;;;;5034109;28;20028;-69
2021/09/04 00:29:18;;;;;;;4.03;1.30;;;;;;;;;;5037314;28;20013;-69
2021/09/04 00:31:45;;;;;;;5.07;1.45;;;;;;;;;;5035754;28;20051;-70
2021/09/04 00:34:12;;;;;;;5.10;1.13;;;;;;;;;;5036249;28;20017;-68
2021/09/04 00:36:40;;;;;;;5.63;1.50;;;;;;;;;;5036445;28;20033;-69
2021/09/04 00:39:07;;;;;;;5.07;1.00;;;;;;;;;;5040060;28;20044;-69
2021/09/04 00:41:35;;;;;;;5.57;1.45;;;;;;;;;;5039173;28;20104;-69
2021/09/04 00:44:03;;;;;;;3.83;1.20;;;;;;;;;;5037783;28;20069;-69
2021/09/04 00:46:30;;;;;;;5.15;1.50;;;;;;;;;;5038680;28;20033;-69
2021/09/04 00:48:58;;;;;;;8.93;1.08;;;;;;;;;;5035137;28;20028;-71
2021/09/04 00:51:26;;;;;;;4.78;1.25;;;;;;;;;;5036614;28;20425;-70
2021/09/04 00:53:53;;;;;;;6.38;1.55;;;;;;;;;;5036857;28;20062;-71
2021/09/04 00:56:20;;;;;;;3.08;0.93;;;;;;;;;;5042805;28;20054;-70
2021/09/04 00:58:47;;;;;;;4.32;1.10;;;;;;;;;;5037097;28;20013;-70
2021/09/04 01:01:14;;;;;;;5.90;1.30;;;;;;;;;;5040076;28;20025;-70
2021/09/04 01:03:41;;;;;;;4.53;1.05;;;;;;;;;;5046835;28;20023;-70
2021/09/04 01:06:09;;;;;;;5.10;1.52;;;;;;;;;;5034363;28;20034;-69
2021/09/04 01:08:36;;;;;;;3.28;1.38;;;;;;;;;;5034193;28;20032;-71
2021/09/04 01:11:03;;;;;;;5.75;1.15;;;;;;;;;;5031718;28;20037;-70
2021/09/04 01:13:30;;;;;;;6.38;1.52;;;;;;;;;;5043004;28;20104;-71
2021/09/04 01:15:57;;;;;;;3.90;1.23;;;;;;;;;;5033212;28;20033;-68
2021/09/04 01:18:24;;;;;;;3.92;1.45;;;;;;;;;;5035601;28;20018;-70
2021/09/04 01:20:51;;;;;;;4.30;1.13;;;;;;;;;;5041584;28;20029;-70
2021/09/04 01:23:19;;;;;;;5.20;2.22;;;;;;;;;;5032918;28;20105;-70
2021/09/04 01:25:50;;;;;;;4.07;1.10;;;;;;;;;;5033733;28;20061;-70
2021/09/04 01:28:17;;;;;;;6.43;1.38;;;;;;;;;;5043335;28;20101;-71
2021/09/04 01:30:45;;;;;;;5.00;1.88;;;;;;;;;;5040105;28;20057;-70
2021/09/04 01:33:13;;;;;;;4.75;1.52;;;;;;;;;;5031228;28;20033;-71
2021/09/04 01:35:40;;;;;;;5.13;1.50;;;;;;;;;;5032812;28;20029;-71
2021/09/04 01:38:07;;;;;;;4.30;1.27;;;;;;;;;;5033481;28;20522;-71
2021/09/04 01:40:34;;;;;;;5.65;1.55;;;;;;;;;;5029928;28;20083;-70
2021/09/04 01:43:01;;;;;;;6.68;1.33;;;;;;;;;;5038273;28;20029;-71
2021/09/04 01:45:28;;;;;;;4.85;1.17;;;;;;;;;;5033863;28;20041;-70
2021/09/04 01:47:55;;;;;;;4.25;1.35;;;;;;;;;;5035648;28;20057;-70
2021/09/04 01:50:23;;;;;;;3.22;0.90;;;;;;;;;;5034455;28;20498;-70
2021/09/04 01:52:50;;;;;;;4.50;1.10;;;;;;;;;;5030142;28;20057;-69
2021/09/04 01:55:18;;;;;;;3.25;1.00;;;;;;;;;;5037266;28;20075;-70
2021/09/04 01:57:45;;;;;;;3.67;1.30;;;;;;;;;;5035650;28;20031;-69
2021/09/04 02:00:13;;;;;;;5.13;1.17;;;;;;;;;;5033526;28;20033;-70
2021/09/04 02:02:41;;;;;;;5.13;1.17;;;;;;;;;;5035975;28;20473;-70
2021/09/04 02:05:09;;;;;;;5.13;1.13;;;;;;;;;;5040168;28;20417;-70
2021/09/04 02:07:36;;;;;;;3.70;1.30;;;;;;;;;;5033442;28;20022;-71
2021/09/04 02:10:04;;;;;;;3.42;1.10;;;;;;;;;;5040646;28;20037;-71
2021/09/04 02:12:31;;;;;;;5.35;1.83;;;;;;;;;;5030248;28;20030;-71
2021/09/04 02:14:58;;;;;;;6.53;1.10;;;;;;;;;;5040998;28;20017;-70
2021/09/04 02:17:25;;;;;;;3.55;1.00;;;;;;;;;;5039263;28;20574;-71
2021/09/04 02:19:53;;;;;;;4.13;1.20;;;;;;;;;;5032557;28;20022;-71
2021/09/04 02:22:20;;;;;;;3.92;1.23;;;;;;;;;;5032218;28;20036;-71
2021/09/04 02:24:47;;;;;;;6.22;1.42;;;;;;;;;;5037879;28;20029;-71
2021/09/04 02:27:14;;;;;;;5.60;1.25;;;;;;;;;;5033379;28;20482;-71
2021/09/04 02:29:41;;;;;;;3.78;1.15;;;;;;;;;;5049392;28;20029;-71
2021/09/04 02:32:09;;;;;;;3.50;1.17;;;;;;;;;;5049567;28;20030;-71
2021/09/04 02:34:36;;;;;;;5.55;1.00;;;;;;;;;;5042167;28;20041;-72
2021/09/04 02:37:03;;;;;;;6.68;1.27;;;;;;;;;;5041232;28;20163;-71
2021/09/04 02:39:30;;;;;;;4.40;1.08;;;;;;;;;;5031977;28;20605;-71
2021/09/04 02:41:58;;;;;;;5.72;1.23;;;;;;;;;;5030618;28;20104;-70
2021/09/04 02:44:25;;;;;;;4.53;1.08;;;;;;;;;;5037027;28;20087;-68
2021/09/04 02:46:52;;;;;;;6.57;1.50;;;;;;;;;;5038298;28;20021;-70
2021/09/04 02:49:19;;;;;;;5.88;1.10;;;;;;;;;;5033490;28;20022;-70
2021/09/04 02:51:46;;;;;;;3.35;1.05;;;;;;;;;;5034868;28;20009;-70
2021/09/04 02:54:13;;;;;;;6.95;1.40;;;;;;;;;;5048541;28;20433;-69
2021/09/04 02:56:40;;;;;;;6.25;1.58;;;;;;;;;;5051207;28;20025;-69
2021/09/04 02:59:08;;;;;;;4.97;1.67;;;;;;;;;;5045227;28;20048;-69
2021/09/04 03:01:35;;;;;;;3.38;1.05;;;;;;;;;;5042695;28;20056;-72
2021/09/04 03:04:02;;;;;;;4.75;1.38;;;;;;;;;;5032472;28;20029;-71
2021/09/04 03:06:29;;;;;;;6.03;1.50;;;;;;;;;;5030482;28;20030;-72
2021/09/04 03:08:56;;;;;;;6.45;1.55;;;;;;;;;;5031939;28;20049;-70
2021/09/04 03:11:23;;;;;;;5.35;1.67;;;;;;;;;;5036376;28;20033;-71
2021/09/04 03:13:51;;;;;;;3.25;1.15;;;;;;;;;;5050310;28;20052;-71
2021/09/04 03:16:18;;;;;;;5.68;1.20;;;;;;;;;;5042282;28;20025;-71
2021/09/04 03:18:46;;;;;;;4.57;1.23;;;;;;;;;;5040600;28;20429;-71
2021/09/04 03:21:13;;;;;;;6.03;1.48;;;;;;;;;;5042475;28;20501;-69
2021/09/04 03:23:40;;;;;;;10.50;1.88;;;;;;;;;;5038759;28;20395;-71
2021/09/04 03:26:07;;;;;;;5.88;1.42;;;;;;;;;;5045050;28;20041;-70
2021/09/04 03:28:34;;;;;;;8.75;1.30;;;;;;;;;;5045162;28;20562;-70
2021/09/04 03:31:01;;;;;;;4.45;1.30;;;;;;;;;;5040568;28;20079;-71
2021/09/04 03:33:28;;;;;;;7.25;1.40;;;;;;;;;;5037581;28;20029;-72
2021/09/04 03:35:56;;;;;;;6.93;0.88;;;;;;;;;;5033370;28;20052;-72
2021/09/04 03:38:23;;;;;;;7.78;1.23;;;;;;;;;;5034614;28;20045;-72
2021/09/04 03:40:50;;;;;;;4.47;1.00;;;;;;;;;;5046030;28;20521;-72
2021/09/04 03:43:17;;;;;;;4.60;1.17;;;;;;;;;;5035459;28;20037;-71
2021/09/04 03:45:44;;;;;;;3.80;1.10;;;;;;;;;;5046403;28;20032;-71
2021/09/04 03:48:11;;;;;;;4.97;1.38;;;;;;;;;;5047042;28;20112;-71
2021/09/04 03:50:39;;;;;;;4.55;1.02;;;;;;;;;;5052876;28;20021;-71
2021/09/04 03:53:06;;;;;;;3.42;1.40;;;;;;;;;;5044501;28;20049;-72
2021/09/04 03:55:33;;;;;;;5.32;1.00;;;;;;;;;;5033129;28;20034;-71
2021/09/04 03:58:00;;;;;;;8.68;2.63;;;;;;;;;;5049480;28;20542;-70
2021/09/04 04:00:27;;;;;;;5.18;1.88;;;;;;;;;;5035363;28;20029;-71
2021/09/04 04:02:54;;;;;;;4.80;1.70;;;;;;;;;;5039582;28;20048;-70
2021/09/04 04:05:22;;;;;;;3.63;1.27;;;;;;;;;;5052279;28;20037;-72
2021/09/04 04:07:49;;;;;;;10.98;2.20;;;;;;;;;;5036400;28;20021;-72
2021/09/04 04:10:16;;;;;;;7.78;2.17;;;;;;;;;;5034483;28;20437;-70
2021/09/04 04:12:43;;;;;;;4.95;1.50;;;;;;;;;;5048711;28;20021;-71
2021/09/04 04:15:10;;;;;;;8.93;2.17;;;;;;;;;;5037155;28;20029;-71
2021/09/04 04:17:38;;;;;;;5.85;1.63;;;;;;;;;;5034582;28;20075;-71
2021/09/04 04:20:08;;;;;;;5.70;1.48;;;;;;;;;;5053072;28;20464;-71
2021/09/04 04:22:35;;;;;;;6.05;2.17;;;;;;;;;;5043835;28;20086;-71
2021/09/04 04:25:02;;;;;;;7.03;2.20;;;;;;;;;;5038508;28;20106;-70
2021/09/04 04:27:29;;;;;;;11.15;2.28;;;;;;;;;;5047550;28;20037;-71
2021/09/04 04:29:56;;;;;;;5.18;1.77;;;;;;;;;;5035492;28;20544;-70
2021/09/04 04:32:24;;;;;;;10.80;2.40;;;;;;;;;;5042336;28;20048;-71
2021/09/04 04:34:51;;;;;;;8.75;2.45;;;;;;;;;;5034364;28;20033;-70
2021/09/04 04:37:18;;;;;;;6.10;1.58;;;;;;;;;;5034952;28;20072;-70
2021/09/04 04:39:46;;;;;;;7.28;1.95;;;;;;;;;;5034584;28;20466;-69
2021/09/04 04:42:13;;;;;;;7.43;1.70;;;;;;;;;;5041043;28;20176;-70
2021/09/04 04:44:40;;;;;;;5.70;2.28;;;;;;;;;;5041394;28;20560;-69
2021/09/04 04:47:08;;;;;;;8.93;2.10;;;;;;;;;;5043324;28;20040;-72
2021/09/04 04:49:39;;;;;;;6.72;1.90;;;;;;;;;;5038195;28;20052;-71
2021/09/04 04:52:06;;;;;;;6.15;1.60;;;;;;;;;;5041719;28;20467;-72
2021/09/04 04:54:33;;;;;;;5.38;2.00;;;;;;;;;;5038228;28;20056;-72
2021/09/04 04:57:01;;;;;;;6.18;2.47;;;;;;;;;;5039449;28;20076;-71
2021/09/04 04:59:28;;;;;;;5.80;2.10;;;;;;;;;;5039945;28;20040;-72
2021/09/04 05:01:55;;;;;;;7.47;2.05;;;;;;;;;;5034669;28;20036;-72
2021/09/04 05:04:23;;;;;;;8.82;2.80;;;;;;;;;;5036644;28;20018;-72
2021/09/04 05:06:50;;;;;;;9.30;2.90;;;;;;;;;;5035461;28;20029;-73
2021/09/04 05:09:17;;;;;;;9.43;2.53;;;;;;;;;;5037935;28;20034;-72
2021/09/04 05:11:45;;;;;;;6.63;1.67;;;;;;;;;;5050965;28;20013;-72
2021/09/04 05:14:12;;;;;;;9.63;2.05;;;;;;;;;;5038626;28;20099;-71
2021/09/04 05:16:40;;;;;;;3.92;1.40;;;;;;;;;;5034634;28;20024;-71
2021/09/04 05:19:07;;;;;;;8.52;2.33;;;;;;;;;;5047632;28;20157;-70
2021/09/04 05:21:34;;;;;;;7.25;2.20;;;;;;;;;;5034811;28;20053;-71
2021/09/04 05:24:01;;;;;;;7.68;2.17;;;;;;;;;;5032729;28;20120;-71
2021/09/04 05:26:28;;;;;;;9.20;2.10;;;;;;;;;;5044654;28;20029;-71
2021/09/04 05:28:55;;;;;;;9.48;1.92;;;;;;;;;;5047396;28;20025;-72
2021/09/04 05:31:22;;;;;;;9.88;2.10;;;;;;;;;;5034397;28;20482;-71
2021/09/04 05:33:50;;;;;;;8.80;2.20;;;;;;;;;;5042893;28;20143;-72
2021/09/04 05:36:17;;;;;;;6.57;1.60;;;;;;;;;;5036514;28;20033;-72
2021/09/04 05:38:44;;;;;;;9.63;2.53;;;;;;;;;;5036087;28;20038;-73
2021/09/04 05:41:12;;;;;;;12.32;2.78;;;;;;;;;;5038744;28;20065;-72
2021/09/04 05:43:39;;;;;;;6.90;2.58;;;;;;;;;;5040404;28;20025;-71
2021/09/04 05:46:06;;;;;;;8.07;1.90;;;;;;;;;;5032837;28;20029;-71
2021/09/04 05:48:33;;;;;;;8.10;1.85;;;;;;;;;;5036605;28;20030;-71
2021/09/04 05:51:00;;;;;;;8.50;2.22;;;;;;;;;;5033603;28;20053;-71
2021/09/04 05:53:31;;;;;;;9.63;2.88;;;;;;;;;;5043345;28;20029;-71
2021/09/04 05:55:58;;;;;;;8.02;2.22;;;;;;;;;;5039569;28;20028;-71
2021/09/04 05:58:25;;;;;;;6.75;1.92;;;;;;;;;;5031665;28;20038;-71
2021/09/04 06:00:53;;;;;;;10.93;2.50;;;;;;;;;;5034847;28;20071;-72
2021/09/04 06:03:20;;;;;;;8.85;2.35;;;;;;;;;;5043450;28;20034;-72
2021/09/04 06:05:47;;;;;;;8.18;2.50;;;;;;;;;;5036769;28;20032;-72
2021/09/04 06:08:14;;;;;;;7.20;2.05;;;;;;;;;;5033657;28;20036;-72
2021/09/04 06:10:42;;;;;;;8.70;2.40;;;;;;;;;;5035644;28;20510;-73
2021/09/04 06:13:09;;;;;;;4.75;2.00;;;;;;;;;;5043013;28;20462;-73
2021/09/04 06:15:36;;;;;;;8.38;2.35;;;;;;;;;;5033286;28;20029;-72
2021/09/04 06:18:03;;;;;;;12.82;2.15;;;;;;;;;;5033534;28;20025;-72
2021/09/04 06:20:30;;;;;;;4.97;2.10;;;;;;;;;;5031833;28;20147;-72
2021/09/04 06:22:57;;;;;;;8.60;1.83;;;;;;;;;;5036072;28;20029;-73
2021/09/04 06:25:24;;;;;;;7.85;2.67;;;;;;;;;;5041848;28;20378;-73
2021/09/04 06:27:52;;;;;;;9.15;2.50;;;;;;;;;;5040748;28;20033;-73
2021/09/04 06:30:19;;;;;;;8.45;2.80;;;;;;;;;;5032154;28;20034;-72
2021/09/04 06:32:46;;;;;;;8.85;2.58;;;;;;;;;;5035467;28;20019;-73
2021/09/04 06:35:13;;;;;;;12.82;2.65;;;;;;;;;;5041935;28;20025;-73
2021/09/04 06:37:40;;;;;;;8.80;2.80;;;;;;;;;;5036697;28;20046;-72
2021/09/04 06:40:08;;;;;;;11.95;3.92;;;;;;;;;;5037647;28;20054;-73
2021/09/04 06:42:35;;;;;;;6.25;2.78;;;;;;;;;;5044261;28;20021;-72
2021/09/04 06:45:02;;;;;;;9.63;2.85;;;;;;;;;;5040357;28;20041;-73
2021/09/04 06:47:29;;;;;;;8.43;3.05;;;;;;;;;;5043365;28;20117;-72
2021/09/04 06:49:56;;;;;;;12.40;4.05;;;;;;;;;;5055528;28;20033;-72
2021/09/04 06:52:23;;;;;;;9.00;3.25;;;;;;;;;;5054327;28;20543;-72
2021/09/04 06:54:50;;;;;;;14.63;4.63;;;;;;;;;;5055698;28;20021;-72
2021/09/04 06:57:18;;;;;;;12.98;4.10;;;;;;;;;;5055553;28;20551;-73
2021/09/04 06:59:45;;;;;;;10.27;3.60;;;;;;;;;;5055710;28;20025;-73
2021/09/04 07:02:12;;;;;;;12.50;4.15;;;;;;;;;;5052625;28;20075;-73
2021/09/04 07:04:39;;;;;;;11.85;3.58;;;;;;;;;;5041592;28;20497;-72
2021/09/04 07:07:06;;;;;;;11.52;4.20;;;;;;;;;;5043674;28;20037;-73
2021/09/04 07:09:34;;;;;;;13.25;4.07;;;;;;;;;;5035437;28;20036;-74
2021/09/04 07:12:01;;;;;;;11.90;4.00;;;;;;;;;;5047407;28;20025;-73
2021/09/04 07:14:28;;;;;;;9.73;4.20;;;;;;;;;;5040664;28;20112;-72
2021/09/04 07:16:55;;;;;;;15.75;5.15;;;;;;;;;;5035031;28;20079;-73
2021/09/04 07:19:22;;;;;;;10.13;5.80;;;;;;;;;;5040256;28;20064;-73
2021/09/04 07:21:49;;;;;;;8.40;4.43;;;;;;;;;;5039142;28;20129;-73
2021/09/04 07:24:17;;;;;;;9.02;4.38;;;;;;;;;;5035505;28;20108;-73
2021/09/04 07:26:44;;;;;;;12.52;5.40;;;;;;;;;;5040971;28;20037;-73
2021/09/04 07:29:11;;;;;;;14.35;5.22;;;;;;;;;;5050453;28;20155;-73
2021/09/04 07:31:38;;;;;;;12.52;4.57;;;;;;;;;;5042075;28;20103;-73
2021/09/04 07:34:05;;;;;;;8.88;4.75;;;;;;;;;;5034917;28;20044;-73
2021/09/04 07:36:32;;;;;;;12.90;5.28;;;;;;;;;;5040597;28;20032;-73
2021/09/04 07:38:59;;;;;;;10.30;4.50;;;;;;;;;;5035970;28;20064;-73
2021/09/04 07:41:27;;;;;;;11.95;3.70;;;;;;;;;;5037229;28;20024;-72
2021/09/04 07:43:54;;;;;;;11.07;4.30;;;;;;;;;;5044650;28;20029;-71
2021/09/04 07:46:21;;;;;;;12.90;3.97;;;;;;;;;;5036725;28;20033;-71
2021/09/04 07:48:48;;;;;;;10.98;4.43;;;;;;;;;;5037676;28;20042;-72
2021/09/04 07:51:16;;;;;;;9.43;3.90;;;;;;;;;;5036172;28;20053;-72
2021/09/04 07:53:43;;;;;;;11.70;4.50;;;;;;;;;;5038219;28;20033;-72
2021/09/04 07:56:10;;;;;;;11.68;4.30;;;;;;;;;;5033058;28;20033;-72
2021/09/04 07:58:37;;;;;;;11.70;4.40;;;;;;;;;;5032883;28;20029;-72
2021/09/04 08:01:04;;;;;;;9.32;4.00;;;;;;;;;;5052728;28;20036;-72
2021/09/04 08:03:31;;;;;;;9.02;3.17;;;;;;;;;;5050065;28;20547;-72
2021/09/04 08:05:58;;;;;;;7.68;2.80;;;;;;;;;;5033854;28;20095;-72
2021/09/04 08:08:25;;;;;;;7.75;3.38;;;;;;;;;;5034440;28;20433;-72
2021/09/04 08:10:53;;;;;;;9.93;3.28;;;;;;;;;;5033938;28;20056;-73
2021/09/04 08:13:20;;;;;;;10.10;3.20;;;;;;;;;;5034294;28;20027;-73
2021/09/04 08:15:48;;;;;;;10.15;3.80;;;;;;;;;;5035749;28;20022;-73
2021/09/04 08:18:15;;;;;;;12.50;4.70;;;;;;;;;;5033767;28;20024;-71
2021/09/04 08:20:43;;;;;;;10.82;4.20;;;;;;;;;;5036625;28;20071;-72
2021/09/04 08:23:10;;;;;;;10.85;4.78;;;;;;;;;;5034828;28;20029;-73
2021/09/04 08:25:37;;;;;;;12.27;4.47;;;;;;;;;;5033087;28;20021;-72
2021/09/04 08:28:11;;;;;;;18.40;5.68;;;;;;;;;;5031930;28;20133;-71
2021/09/04 08:30:39;;;;;;;8.55;3.67;;;;;;;;;;5040529;28;20032;-73
2021/09/04 08:33:06;;;;;;;10.90;4.35;;;;;;;;;;5031665;28;20467;-73
2021/09/04 08:35:34;;;;;;;8.30;3.92;;;;;;;;;;5036354;28;20036;-71
2021/09/04 08:38:06;;;;;;;7.85;3.83;;;;;;;;;;5034123;28;20047;-71
2021/09/04 08:40:34;;;;;;;11.05;4.47;;;;;;;;;;5033103;28;20018;-72
2021/09/04 08:43:01;;;;;;;11.68;4.75;;;;;;;;;;5047698;28;20443;-72
2021/09/04 08:45:29;;;;;;;13.73;5.20;;;;;;;;;;5036204;28;20092;-72
2021/09/04 08:47:56;;;;;;;11.93;4.28;;;;;;;;;;5046434;28;20036;-72
2021/09/04 08:50:25;;;;;;;15.82;5.25;;;;;;;;;;5037039;28;20030;-72
2021/09/04 08:52:53;;;;;;;9.48;4.00;;;;;;;;;;5034117;28;20026;-73
2021/09/04 08:55:20;;;;;;;10.07;3.40;;;;;;;;;;5033511;28;20086;-73
2021/09/04 08:57:48;;;;;;;8.77;3.22;;;;;;;;;;5040114;28;20496;-73
2021/09/04 09:00:26;;;;;;;10.75;3.90;;;;;;;;;;5033043;28;20030;-73
2021/09/04 09:02:53;;;;;;;6.97;2.85;;;;;;;;;;5033214;28;20014;-71
2021/09/04 09:05:20;;;;;;;9.25;3.55;;;;;;;;;;5043896;28;20028;-71
2021/09/04 09:07:48;;;;;;;8.38;3.38;;;;;;;;;;5039078;28;20055;-72
2021/09/04 09:10:24;;;;;;;10.27;3.60;;;;;;;;;;5037813;28;20116;-72
2021/09/04 09:12:52;;;;;;;7.97;3.03;;;;;;;;;;5047879;28;20637;-71
2021/09/04 09:15:26;;;;;;;7.75;3.33;;;;;;;;;;5046563;28;20389;-71
2021/09/04 09:17:53;;;;;;;;;;;;;;;;;;5035247;28;20036;-71
2021/09/04 09:20:24;;;;;;;8.30;2.65;;;;;;;;;;5032262;28;20012;-72
2021/09/04 09:22:51;;;;;;;8.48;3.25;;;;;;;;;;5049530;28;20135;-72
2021/09/04 09:25:19;;;;;;;7.80;3.25;;;;;;;;;;5047355;28;20028;-73
2021/09/04 09:28:00;;;;;;;8.60;3.80;;;;;;;;;;5040724;28;20458;-71
2021/09/04 09:30:31;;;;;;;10.65;4.93;;;;;;;;;;5037924;28;20443;-72
2021/09/04 09:32:58;;;;;;;9.27;3.75;;;;;;;;;;5042320;28;20038;-72
2021/09/04 09:35:54;;;;;;;10.10;4.07;;;;;;;;;;5042884;28;20327;-72
2021/09/04 09:38:26;;;;;;;9.77;3.55;;;;;;;;;;5045510;28;20099;-72
2021/09/04 09:40:54;;;;;;;11.60;4.50;;;;;;;;;;5033334;28;20021;-72
2021/09/04 09:43:23;;;;;;;8.93;4.00;;;;;;;;;;5044463;28;20025;-73
2021/09/04 09:45:54;;;;;;;12.65;3.63;;;;;;;;;;5037481;28;20037;-73
2021/09/04 09:48:25;;;;;;;13.65;3.97;;;;;;;;;;5053055;28;20025;-72
2021/09/04 09:50:53;;;;;;;7.78;3.42;;;;;;;;;;5045476;28;20049;-72
2021/09/04 09:53:21;;;;;;;10.25;3.58;;;;;;;;;;5052514;28;20064;-72
2021/09/04 09:55:50;;;;;;;7.20;3.75;;;;;;;;;;5036574;28;20040;-72
2021/09/04 09:58:17;;;;;;;8.07;3.10;;;;;;;;;;5052767;28;20028;-71
2021/09/04 10:00:45;;;;;;;10.60;3.17;;;;;;;;;;5053734;28;20108;-71
2021/09/04 10:03:13;;;;;;;8.23;4.05;;;;;;;;;;5049727;28;20041;-71
2021/09/04 10:05:40;;;;;;;8.40;2.95;;;;;;;;;;5048030;28;20021;-72
2021/09/04 10:08:07;;;;;;;9.43;3.95;;;;;;;;;;5046317;28;20405;-73
2021/09/04 10:10:38;;;;;;;11.25;3.75;;;;;;;;;;5038510;28;20025;-72
2021/09/04 10:13:06;;;;;;;8.63;4.13;;;;;;;;;;5044036;28;20453;-72
2021/09/04 10:15:37;;;;;;;10.60;6.13;;;;;;;;;;5045076;28;20117;-72
2021/09/04 10:18:08;;;;;;;9.60;4.47;;;;;;;;;;5034756;28;20419;-74
2021/09/04 10:20:36;;;;;;;9.55;4.07;;;;;;;;;;5043474;28;20021;-75
2021/09/04 10:23:15;;;;;;;13.05;3.78;;;;;;;;;;5047853;28;20030;-74
2021/09/04 10:25:43;;;;;;;8.90;3.25;;;;;;;;;;5033726;28;20046;-74
2021/09/04 10:28:10;;;;;;;6.90;2.70;;;;;;;;;;5033294;28;20091;-73
2021/09/04 10:30:38;;;;;;;7.68;3.17;;;;;;;;;;5034271;28;20014;-73
2021/09/04 10:33:10;;;;;;;7.95;3.85;;;;;;;;;;5034758;28;20038;-73
2021/09/04 10:35:51;;;;;;;7.85;3.28;;;;;;;;;;5042719;28;20041;-73
2021/09/04 10:38:21;;;;;;;9.07;2.90;;;;;;;;;;5042826;28;20075;-74
2021/09/04 10:40:50;;;;;;;7.93;3.53;;;;;;;;;;5033130;28;20092;-72
2021/09/04 10:43:19;;;;;;;8.63;3.35;;;;;;;;;;5033104;28;20049;-73
2021/09/04 10:45:48;;;;;;;10.70;3.10;;;;;;;;;;5036133;28;20038;-73
2021/09/04 10:48:19;;;;;;;7.18;3.22;;;;;;;;;;5032832;28;20402;-72
2021/09/04 10:51:07;;;;;;;6.55;3.40;;;;;;;;;;5039706;28;20021;-71
2021/09/04 10:53:44;;;;;;;5.93;2.92;;;;;;;;;;5037442;28;20511;-72
2021/09/04 10:56:31;;;;;;;5.80;3.10;;;;;;;;;;5045726;28;20029;-71
2021/09/04 10:58:58;;;;;;;10.55;3.70;;;;;;;;;;5034209;28;20049;-71
2021/09/04 11:01:25;;;;;;;7.30;3.58;;;;;;;;;;5036589;28;20023;-72
2021/09/04 11:03:56;;;;;;;10.20;3.38;;;;;;;;;;5033262;28;20029;-73
2021/09/04 11:06:24;;;;;;;6.50;2.97;;;;;;;;;;5038019;28;20029;-72
2021/09/04 11:08:52;;;;;;;9.43;3.60;;;;;;;;;;5036813;28;20636;-73
2021/09/04 11:11:39;;;;;;;9.68;2.67;;;;;;;;;;5039457;28;20404;-72
2021/09/04 11:14:25;;;;;;;7.90;2.80;;;;;;;;;;5033629;28;20495;-72
2021/09/04 11:16:54;;;;;;;7.57;2.75;;;;;;;;;;5037264;28;20017;-72
2021/09/04 11:19:22;;;;;;;8.38;2.40;;;;;;;;;;5049798;28;20048;-73
2021/09/04 11:21:50;;;;;;;6.00;2.45;;;;;;;;;;5051441;28;20020;-72
2021/09/04 11:24:27;;;;;;;7.03;2.15;;;;;;;;;;5049988;28;20029;-73
2021/09/04 11:26:56;;;;;;;5.18;2.10;;;;;;;;;;5043309;28;20040;-72
2021/09/04 11:29:25;;;;;;;8.25;2.72;;;;;;;;;;5034297;28;20504;-73
2021/09/04 11:31:56;;;;;;;10.32;3.85;;;;;;;;;;5048457;28;20539;-72
2021/09/04 11:34:36;;;;;;;6.05;2.00;;;;;;;;;;5032784;28;20033;-72
2021/09/04 11:37:17;;;;;;;6.72;1.83;;;;;;;;;;5033265;28;20068;-73
2021/09/04 11:39:45;;;;;;;4.20;1.70;;;;;;;;;;5034635;28;20033;-72
2021/09/04 11:42:18;;;;;;;4.25;1.73;;;;;;;;;;5043573;28;20022;-72
2021/09/04 11:45:06;;;;;;;8.65;2.08;;;;;;;;;;5046403;28;20034;-71
2021/09/04 11:47:34;;;;;;;7.10;2.55;;;;;;;;;;5036716;28;20038;-72
2021/09/04 11:50:02;;;;;;;6.35;1.90;;;;;;;;;;5040332;28;20140;-72
2021/09/04 11:52:29;;;;;;;7.47;2.33;;;;;;;;;;5043589;28;20032;-73
2021/09/04 11:55:04;;;;;;;5.18;1.83;;;;;;;;;;5040739;28;20086;-73
2021/09/04 11:57:32;;;;;;;7.60;1.52;;;;;;;;;;5039901;28;20037;-74
2021/09/04 12:00:00;;;;;;;4.40;1.42;;;;;;;;;;5037749;28;20026;-73
2021/09/04 12:02:28;;;;;;;7.70;1.85;;;;;;;;;;5041191;28;20385;-74
2021/09/04 12:04:55;;;;;;;6.28;1.67;;;;;;;;;;5038979;28;20034;-74
2021/09/04 12:07:29;;;;;;;6.45;1.70;;;;;;;;;;5042672;28;20107;-73
2021/09/04 12:09:57;;;;;;;6.20;1.80;;;;;;;;;;5036376;28;20032;-73
2021/09/04 12:12:26;;;;;;;3.53;1.67;;;;;;;;;;5037267;28;20045;-74
2021/09/04 12:14:54;;;;;;;5.93;2.45;;;;;;;;;;5039777;28;20018;-74
2021/09/04 12:17:21;;;;;;;10.75;1.88;;;;;;;;;;5039749;28;20425;-74
2021/09/04 12:19:48;;;;;;;4.88;1.65;;;;;;;;;;5039157;28;20041;-73
2021/09/04 12:22:16;;;;;;;6.55;1.75;;;;;;;;;;5045690;28;20025;-73
2021/09/04 12:24:43;;;;;;;5.40;1.80;;;;;;;;;;5038696;28;20029;-73
2021/09/04 12:27:11;;;;;;;4.82;1.40;;;;;;;;;;5032278;28;20397;-73
2021/09/04 12:29:38;;;;;;;3.83;1.63;;;;;;;;;;5033961;28;20436;-73
2021/09/04 12:32:07;;;;;;;7.63;1.58;;;;;;;;;;5039767;28;20034;-72
2021/09/04 12:34:34;;;;;;;4.13;1.35;;;;;;;;;;5040101;28;20036;-72
2021/09/04 12:37:01;;;;;;;5.32;1.65;;;;;;;;;;5033702;28;20486;-73
2021/09/04 12:39:30;;;;;;;5.90;1.75;;;;;;;;;;5046920;28;20033;-72
2021/09/04 12:42:05;;;;;;;4.70;1.38;;;;;;;;;;5044992;28;20397;-73
2021/09/04 12:44:50;;;;;;;5.80;2.03;;;;;;;;;;5035775;28;20079;-73
2021/09/04 12:47:17;;;;;;;5.63;1.33;;;;;;;;;;5033151;28;20502;-73
2021/09/04 12:50:02;;;;;;;5.20;1.67;;;;;;;;;;5034095;28;20022;-72
2021/09/04 12:52:30;;;;;;;5.75;1.48;;;;;;;;;;5032267;28;20056;-73
2021/09/04 12:54:58;;;;;;;2.65;1.38;;;;;;;;;;5032832;28;20459;-72
2021/09/04 12:57:32;;;;;;;5.35;0.95;;;;;;;;;;5034745;28;20112;-72
2021/09/04 13:00:04;;;;;;;5.82;1.20;;;;;;;;;;5033825;28;20105;-73
2021/09/04 13:02:31;;;;;;;3.60;1.17;;;;;;;;;;5047701;28;20052;-72
2021/09/04 13:05:00;;;;;;;3.15;1.20;;;;;;;;;;5041347;28;20043;-73
2021/09/04 13:07:28;;;;;;;3.83;1.38;;;;;;;;;;5044915;28;20029;-73
2021/09/04 13:09:55;;;;;;;5.05;1.20;;;;;;;;;;5031755;28;20030;-72
2021/09/04 13:12:22;;;;;;;5.47;1.20;;;;;;;;;;5033606;28;20021;-73
2021/09/04 13:14:49;;;;;;;7.18;1.83;;;;;;;;;;5040928;28;20078;-73
2021/09/04 13:17:16;;;;;;;5.32;1.20;;;;;;;;;;5033320;28;20048;-73
2021/09/04 13:19:43;;;;;;;4.97;1.23;;;;;;;;;;5032304;28;20097;-73
2021/09/04 13:22:10;;;;;;;5.40;1.40;;;;;;;;;;5049657;28;20025;-74
2021/09/04 13:24:38;;;;;;;2.75;0.90;;;;;;;;;;5041464;28;20056;-73
2021/09/04 13:27:05;;;;;;;5.43;1.00;;;;;;;;;;5031843;28;20045;-73
2021/09/04 13:29:34;;;;;;;4.28;1.05;;;;;;;;;;5038830;28;20029;-73
2021/09/04 13:32:01;;;;;;;5.72;1.60;;;;;;;;;;5032634;28;20102;-73
2021/09/04 13:34:28;;;;;;;4.18;1.20;;;;;;;;;;5034101;28;20017;-73
2021/09/04 13:36:57;;;;;;;6.05;1.35;;;;;;;;;;5036563;28;20504;-72
2021/09/04 13:39:30;;;;;;;3.85;1.33;;;;;;;;;;5047122;28;20877;-73
2021/09/04 13:41:57;;;;;;;6.07;1.35;;;;;;;;;;5049695;28;20045;-73
2021/09/04 13:44:24;;;;;;;5.10;1.30;;;;;;;;;;5033978;28;20489;-74
2021/09/04 13:46:52;;;;;;;6.80;1.48;;;;;;;;;;5034945;28;20210;-73
2021/09/04 13:49:19;;;;;;;3.85;1.33;;;;;;;;;;5036660;28;20033;-74
2021/09/04 13:51:46;;;;;;;3.85;1.50;;;;;;;;;;5036758;28;20040;-73
2021/09/04 13:54:13;;;;;;;3.80;1.58;;;;;;;;;;5034476;28;20095;-73
2021/09/04 13:56:40;;;;;;;5.30;1.65;;;;;;;;;;5036128;28;20037;-74
2021/09/04 13:59:07;;;;;;;5.60;1.30;;;;;;;;;;5043050;28;20029;-74
2021/09/04 14:01:34;;;;;;;6.25;1.02;;;;;;;;;;5041699;28;20052;-74
2021/09/04 14:04:01;;;;;;;3.22;0.90;;;;;;;;;;5042735;28;20084;-73
2021/09/04 14:06:29;;;;;;;4.05;1.55;;;;;;;;;;5035800;28;20482;-73
2021/09/04 14:08:56;;;;;;;4.40;1.40;;;;;;;;;;5034765;28;20037;-73
2021/09/04 14:11:23;;;;;;;4.05;1.42;;;;;;;;;;5040569;28;20502;-73
2021/09/04 14:13:51;;;;;;;3.63;1.23;;;;;;;;;;5029978;28;20060;-74
2021/09/04 14:16:18;;;;;;;1.92;1.00;;;;;;;;;;5043912;28;20040;-74
2021/09/04 14:18:45;;;;;;;3.95;1.20;;;;;;;;;;5040600;28;20022;-73
2021/09/04 14:21:12;;;;;;;3.45;0.80;;;;;;;;;;5033983;28;20029;-73
2021/09/04 14:23:39;;;;;;;5.05;1.05;;;;;;;;;;5032111;28;20029;-73
2021/09/04 14:26:07;;;;;;;6.70;1.10;;;;;;;;;;5039582;28;20040;-73
2021/09/04 14:28:34;;;;;;;5.32;2.03;;;;;;;;;;5031562;28;20056;-74
2021/09/04 14:31:01;;;;;;;3.17;1.00;;;;;;;;;;5031980;28;20113;-73
2021/09/04 14:33:28;;;;;;;3.50;1.10;;;;;;;;;;5031774;28;20351;-72
2021/09/04 14:35:55;;;;;;;2.90;0.80;;;;;;;;;;5032107;28;20386;-73
2021/09/04 14:38:22;;;;;;;2.85;0.90;;;;;;;;;;5031749;28;20050;-73
2021/09/04 14:40:49;;;;;;;4.47;1.25;;;;;;;;;;5039825;28;21015;-73
2021/09/04 14:43:20;;;;;;;3.35;1.30;;;;;;;;;;5035697;28;20458;-73
2021/09/04 14:45:47;;;;;;;3.45;1.30;;;;;;;;;;5048752;28;20090;-74
2021/09/04 14:48:14;;;;;;;4.97;1.42;;;;;;;;;;5046644;28;20079;-74